Time;durP1;ratioP1;P1;durP2;ratioP2;P2;SDS_P1;SDS_P2;PMS_P1;PMS_P2;Temp;Humidity;BMP_temperature;BMP_pressure;BME280_temperature;BME280_humidity;BME280_pressure;Samples;Min_cycle;Max_cycle;Signal;HPM_P1;HPM_P2
2023/08/26 00:01:30;;;;;;;4.33;4.03;;;24.50;54.00;;;;;;5017849;28;20471;-67
2023/08/26 00:03:55;;;;;;;4.77;4.47;;;24.60;54.10;;;;;;5022293;28;20268;-67
2023/08/26 00:06:21;;;;;;;4.60;4.30;;;24.50;53.90;;;;;;5018913;28;21434;-67
2023/08/26 00:08:46;;;;;;;4.33;4.13;;;24.60;54.10;;;;;;5017435;28;20262;-64
2023/08/26 00:11:12;;;;;;;4.73;4.50;;;24.60;54.10;;;;;;5018520;28;20218;-64
2023/08/26 00:13:37;;;;;;;5.10;4.80;;;24.60;54.00;;;;;;5014645;28;20253;-64
2023/08/26 00:16:03;;;;;;;4.70;4.47;;;24.50;54.00;;;;;;5016688;28;20360;-64
2023/08/26 00:18:28;;;;;;;4.63;4.33;;;24.50;54.00;;;;;;5016968;28;20242;-64
2023/08/26 00:20:56;;;;;;;4.33;4.13;;;24.50;54.00;;;;;;5016339;28;20214;-64
2023/08/26 00:23:22;;;;;;;4.67;4.40;;;24.60;53.90;;;;;;5014177;28;20234;-64
2023/08/26 00:25:47;;;;;;;4.23;4.03;;;24.60;53.80;;;;;;5019810;28;20939;-64
2023/08/26 00:28:13;;;;;;;4.17;3.87;;;24.50;53.70;;;;;;5019505;28;20237;-64
2023/08/26 00:30:38;;;;;;;4.47;4.20;;;24.60;53.80;;;;;;5016301;28;20218;-64
2023/08/26 00:33:04;;;;;;;4.73;4.43;;;24.60;54.60;;;;;;5015670;28;20643;-64
2023/08/26 00:35:29;;;;;;;4.13;3.93;;;24.50;53.70;;;;;;5021254;28;20283;-64
2023/08/26 00:37:55;;;;;;;4.13;3.93;;;24.50;53.80;;;;;;5012835;28;20218;-64
2023/08/26 00:40:21;;;;;;;4.87;4.53;;;24.50;53.70;;;;;;5018020;28;20266;-67
2023/08/26 00:42:46;;;;;;;4.53;4.13;;;24.50;53.70;;;;;;5022013;28;20227;-67
2023/08/26 00:45:13;;;;;;;4.47;4.27;;;24.60;53.80;;;;;;5024052;28;20229;-67
2023/08/26 00:47:39;;;;;;;4.20;3.80;;;24.50;53.80;;;;;;5013980;28;20958;-67
2023/08/26 00:50:05;;;;;;;4.20;4.00;;;24.50;53.70;;;;;;5006754;28;20807;-67
2023/08/26 00:52:31;;;;;;;4.83;4.63;;;24.60;53.90;;;;;;5014167;28;20345;-67
2023/08/26 00:54:57;;;;;;;4.70;4.40;;;24.50;53.80;;;;;;5016319;28;20476;-67
2023/08/26 00:57:23;;;;;;;5.03;4.17;;;24.50;53.70;;;;;;5016211;28;20314;-67
2023/08/26 00:59:49;;;;;;;4.73;4.43;;;24.50;54.40;;;;;;5019633;28;20225;-67
2023/08/26 01:02:15;;;;;;;12.70;4.80;;;24.50;53.60;;;;;;5018245;28;20463;-67
2023/08/26 01:04:40;;;;;;;4.27;3.97;;;24.50;53.40;;;;;;5019116;28;20245;-67
2023/08/26 01:07:06;;;;;;;3.83;3.53;;;24.50;53.40;;;;;;5012912;28;20309;-67
2023/08/26 01:09:32;;;;;;;4.33;3.93;;;24.50;53.20;;;;;;5015143;28;20230;-67
2023/08/26 01:12:25;;;;;;;3.70;3.50;;;24.50;53.20;;;;;;5017372;28;20315;-67
2023/08/26 01:14:58;;;;;;;4.43;4.13;;;24.50;53.10;;;;;;5012432;28;20260;-67
2023/08/26 01:17:24;;;;;;;4.20;4.00;;;24.50;53.10;;;;;;5015555;28;20459;-67
2023/08/26 01:19:52;;;;;;;3.43;3.23;;;24.50;53.00;;;;;;5020236;28;20459;-67
2023/08/26 01:22:22;;;;;;;4.50;4.13;;;24.50;52.80;;;;;;5014654;28;20929;-67
2023/08/26 01:24:48;;;;;;;3.90;3.70;;;24.50;52.70;;;;;;5018088;28;20458;-67
2023/08/26 01:27:13;;;;;;;4.00;3.73;;;24.50;52.60;;;;;;5019024;28;22269;-67
2023/08/26 01:29:39;;;;;;;4.20;4.00;;;24.50;52.50;;;;;;5016480;28;20234;-67
2023/08/26 01:32:24;;;;;;;3.60;3.30;;;24.50;52.40;;;;;;5021839;28;20214;-66
2023/08/26 01:34:55;;;;;;;3.73;3.47;;;24.50;52.30;;;;;;5021204;28;20234;-67
2023/08/26 01:37:22;;;;;;;3.70;3.40;;;24.50;52.20;;;;;;5019107;28;20476;-67
2023/08/26 01:39:50;;;;;;;4.00;3.70;;;24.50;52.10;;;;;;5008085;28;20955;-67
2023/08/26 01:42:19;;;;;;;3.67;3.47;;;24.50;51.90;;;;;;5022653;28;20578;-67
2023/08/26 01:44:46;;;;;;;3.90;3.70;;;24.50;52.00;;;;;;5012130;28;21441;-67
2023/08/26 01:47:12;;;;;;;3.83;3.63;;;24.50;51.80;;;;;;5021874;28;20458;-67
2023/08/26 01:49:37;;;;;;;5.10;3.13;;;24.50;51.90;;;;;;5020620;28;20699;-67
2023/08/26 01:52:03;;;;;;;3.70;3.50;;;24.50;51.90;;;;;;5022283;28;21008;-67
2023/08/26 01:54:29;;;;;;;2.90;2.70;;;24.50;51.90;;;;;;5019898;28;20265;-67
2023/08/26 01:56:54;;;;;;;3.47;3.27;;;24.50;51.80;;;;;;5021021;28;20301;-67
2023/08/26 01:59:20;;;;;;;2.90;2.80;;;24.50;51.80;;;;;;5013271;28;20302;-67
2023/08/26 02:01:45;;;;;;;3.30;3.10;;;24.50;52.00;;;;;;5014443;28;20957;-69
2023/08/26 02:04:11;;;;;;;5.50;2.90;;;24.40;51.90;;;;;;5024624;28;20681;-67
2023/08/26 02:06:40;;;;;;;4.70;3.30;;;24.50;52.00;;;;;;5021605;28;20237;-66
2023/08/26 02:09:06;;;;;;;3.20;3.00;;;24.50;52.00;;;;;;5018000;28;20313;-66
2023/08/26 02:11:32;;;;;;;3.10;2.90;;;24.50;52.00;;;;;;5021730;28;20493;-66
2023/08/26 02:13:57;;;;;;;3.20;3.00;;;24.50;51.80;;;;;;5023488;28;20476;-66
2023/08/26 02:16:23;;;;;;;2.73;2.53;;;24.50;51.60;;;;;;5022767;28;20288;-67
2023/08/26 02:18:48;;;;;;;2.67;2.57;;;24.50;51.50;;;;;;5013031;28;20226;-67
2023/08/26 02:21:14;;;;;;;2.93;2.73;;;24.50;51.50;;;;;;5019901;28;20237;-67
2023/08/26 02:23:40;;;;;;;2.37;2.27;;;24.50;51.30;;;;;;5021218;28;20260;-67
2023/08/26 02:26:05;;;;;;;2.23;2.10;;;24.50;51.30;;;;;;5022518;28;20219;-66
2023/08/26 02:28:31;;;;;;;2.53;2.33;;;24.50;51.20;;;;;;5020366;28;20223;-67
2023/08/26 02:30:57;;;;;;;2.40;2.30;;;24.50;51.10;;;;;;5020101;28;20238;-67
2023/08/26 02:33:24;;;;;;;2.57;2.47;;;24.40;50.80;;;;;;5015477;28;20664;-67
2023/08/26 02:35:50;;;;;;;2.50;2.40;;;24.40;50.80;;;;;;5017809;28;20373;-67
2023/08/26 02:38:15;;;;;;;2.33;2.23;;;24.40;50.70;;;;;;5005023;28;20978;-67
2023/08/26 02:40:41;;;;;;;10.60;2.60;;;24.50;50.60;;;;;;5016796;28;20257;-67
2023/08/26 02:43:06;;;;;;;2.10;1.90;;;24.40;50.40;;;;;;5018882;28;20221;-67
2023/08/26 02:45:32;;;;;;;3.40;2.10;;;24.40;50.30;;;;;;5023069;28;20344;-67
2023/08/26 02:47:57;;;;;;;2.10;2.00;;;24.40;50.10;;;;;;5023144;28;20584;-67
2023/08/26 02:50:24;;;;;;;2.90;2.70;;;24.40;50.10;;;;;;5021993;28;20233;-67
2023/08/26 02:52:50;;;;;;;1.93;1.83;;;24.40;49.90;;;;;;5016753;28;20226;-67
2023/08/26 02:55:16;;;;;;;2.27;2.07;;;24.40;49.90;;;;;;5022204;28;21131;-67
2023/08/26 02:57:42;;;;;;;3.23;2.03;;;24.40;49.80;;;;;;5021493;28;20458;-66
2023/08/26 03:00:09;;;;;;;3.20;1.90;;;24.40;49.70;;;;;;5018474;28;20460;-67
2023/08/26 03:02:35;;;;;;;2.37;2.20;;;24.40;49.50;;;;;;5014326;28;20514;-67
2023/08/26 03:05:01;;;;;;;2.53;1.90;;;24.40;49.40;;;;;;5014224;28;21584;-67
2023/08/26 03:07:27;;;;;;;1.90;1.80;;;24.40;49.30;;;;;;5025059;28;20257;-67
2023/08/26 03:09:53;;;;;;;2.63;2.07;;;24.40;49.20;;;;;;5019212;28;20260;-67
2023/08/26 03:12:18;;;;;;;1.80;1.70;;;24.40;49.10;;;;;;5020463;28;20558;-67
2023/08/26 03:14:44;;;;;;;1.93;1.73;;;24.40;48.90;;;;;;5019261;28;20260;-67
2023/08/26 03:17:09;;;;;;;1.90;1.80;;;24.40;48.90;;;;;;5021541;28;20261;-66
2023/08/26 03:19:35;;;;;;;1.83;1.70;;;24.40;48.80;;;;;;5019908;28;20219;-66
2023/08/26 03:22:00;;;;;;;4.10;2.10;;;24.40;48.60;;;;;;5019473;28;20214;-67
2023/08/26 03:24:26;;;;;;;1.83;1.73;;;24.40;48.60;;;;;;5021365;28;20300;-67
2023/08/26 03:26:52;;;;;;;1.70;1.60;;;24.40;48.60;;;;;;5016847;28;20297;-67
2023/08/26 03:29:17;;;;;;;3.70;1.83;;;24.30;48.50;;;;;;5020735;28;20222;-67
2023/08/26 03:31:44;;;;;;;1.57;1.47;;;24.30;48.50;;;;;;5021568;28;20214;-67
2023/08/26 03:34:09;;;;;;;1.60;1.50;;;24.30;48.50;;;;;;5021717;28;20242;-67
2023/08/26 03:36:35;;;;;;;2.80;1.70;;;24.30;48.50;;;;;;5018334;28;20448;-66
2023/08/26 03:39:00;;;;;;;1.70;1.60;;;24.30;48.50;;;;;;5021808;28;20226;-66
2023/08/26 03:41:26;;;;;;;2.10;1.73;;;24.30;48.50;;;;;;5019804;28;20232;-67
2023/08/26 03:43:52;;;;;;;2.50;1.50;;;24.30;48.50;;;;;;5020330;28;20214;-67
2023/08/26 03:46:17;;;;;;;1.70;1.60;;;24.30;48.50;;;;;;5018974;28;21501;-67
2023/08/26 03:48:43;;;;;;;1.63;1.53;;;24.30;48.50;;;;;;5025142;28;20567;-67
2023/08/26 03:51:09;;;;;;;1.60;1.50;;;24.30;48.50;;;;;;5020936;28;20222;-67
2023/08/26 03:53:35;;;;;;;3.07;1.60;;;24.30;48.50;;;;;;5008656;28;20225;-67
2023/08/26 03:56:01;;;;;;;2.10;2.00;;;24.30;48.50;;;;;;5018019;28;20271;-66
2023/08/26 03:58:27;;;;;;;2.27;1.60;;;24.30;48.30;;;;;;5021724;28;20307;-67
2023/08/26 04:01:00;;;;;;;1.60;1.50;;;24.30;48.10;;;;;;5019845;28;21429;-66
2023/08/26 04:03:25;;;;;;;1.93;1.40;;;24.30;48.10;;;;;;5016086;28;20756;-67
2023/08/26 04:05:57;;;;;;;1.50;1.40;;;24.30;48.00;;;;;;5022120;28;20459;-67
2023/08/26 04:08:23;;;;;;;1.90;1.80;;;24.20;47.90;;;;;;5020139;28;20237;-67
2023/08/26 04:10:52;;;;;;;1.53;1.43;;;24.20;47.70;;;;;;5020006;28;20459;-67
2023/08/26 04:13:24;;;;;;;1.70;1.60;;;24.20;47.60;;;;;;5020402;28;20712;-67
2023/08/26 04:15:52;;;;;;;1.33;1.23;;;24.20;47.60;;;;;;5018964;28;20483;-67
2023/08/26 04:18:18;;;;;;;1.97;1.60;;;24.20;47.50;;;;;;5019919;28;20459;-67
2023/08/26 04:20:44;;;;;;;1.50;1.40;;;24.20;47.50;;;;;;5020726;28;20568;-68
2023/08/26 04:23:09;;;;;;;2.10;1.50;;;24.20;47.40;;;;;;5023980;28;20269;-67
2023/08/26 04:25:35;;;;;;;2.90;1.70;;;24.20;47.30;;;;;;5016327;28;20794;-67
2023/08/26 04:28:00;;;;;;;1.90;1.80;;;24.20;47.20;;;;;;5013911;28;20231;-66
2023/08/26 04:30:26;;;;;;;1.70;1.60;;;24.20;47.10;;;;;;5024186;28;20649;-67
2023/08/26 04:32:51;;;;;;;2.13;1.60;;;24.20;47.10;;;;;;5017522;28;20230;-72
2023/08/26 04:35:18;;;;;;;1.50;1.40;;;24.20;47.10;;;;;;5015229;28;20241;-69
2023/08/26 04:37:43;;;;;;;1.40;1.30;;;24.10;46.90;;;;;;5017327;28;20225;-68
2023/08/26 04:40:12;;;;;;;1.50;1.23;;;24.10;46.80;;;;;;5016354;28;20463;-68
2023/08/26 04:42:38;;;;;;;2.23;1.30;;;24.10;46.80;;;;;;5006742;28;20255;-68
2023/08/26 04:45:05;;;;;;;1.83;1.33;;;24.20;46.70;;;;;;5016201;28;20571;-67
2023/08/26 04:47:30;;;;;;;4.87;1.50;;;24.20;46.60;;;;;;5017982;28;22526;-67
2023/08/26 04:49:56;;;;;;;2.90;1.50;;;24.20;46.50;;;;;;5017654;28;20467;-67
2023/08/26 04:52:21;;;;;;;1.40;1.30;;;24.20;46.40;;;;;;5017239;28;20230;-67
2023/08/26 04:54:47;;;;;;;2.13;1.40;;;24.20;46.40;;;;;;5017467;28;20234;-67
2023/08/26 04:57:12;;;;;;;1.40;1.27;;;24.20;46.30;;;;;;5022923;28;20213;-67
2023/08/26 04:59:38;;;;;;;2.07;1.30;;;24.20;46.20;;;;;;5020089;28;20225;-67
2023/08/26 05:02:07;;;;;;;2.50;1.40;;;24.20;46.10;;;;;;5015569;28;20238;-67
2023/08/26 05:04:33;;;;;;;2.70;1.20;;;24.20;46.10;;;;;;5051031;28;20646;-67
2023/08/26 05:06:59;;;;;;;3.57;1.30;;;24.20;46.00;;;;;;5017069;28;20459;-67
2023/08/26 05:09:24;;;;;;;1.73;1.40;;;24.20;46.00;;;;;;5019273;28;20234;-67
2023/08/26 05:11:50;;;;;;;1.40;1.30;;;24.20;45.80;;;;;;5023134;28;20214;-67
2023/08/26 05:14:15;;;;;;;1.43;1.33;;;24.20;45.80;;;;;;5017923;28;20231;-68
2023/08/26 05:16:41;;;;;;;1.40;1.30;;;24.20;45.70;;;;;;5009182;28;20276;-67
2023/08/26 05:19:06;;;;;;;2.70;1.50;;;24.20;45.60;;;;;;5013772;28;20226;-69
2023/08/26 05:21:32;;;;;;;1.40;1.30;;;24.20;45.60;;;;;;5012401;28;20227;-69
2023/08/26 05:23:59;;;;;;;1.40;1.30;;;24.20;45.60;;;;;;5024137;28;20727;-68
2023/08/26 05:26:24;;;;;;;1.40;1.30;;;24.20;45.50;;;;;;5026351;28;20677;-67
2023/08/26 05:28:50;;;;;;;1.30;1.20;;;24.20;45.50;;;;;;5024177;28;20457;-67
2023/08/26 05:31:15;;;;;;;3.80;1.37;;;24.20;45.40;;;;;;5022716;28;20292;-68
2023/08/26 05:33:41;;;;;;;1.33;1.23;;;24.20;45.40;;;;;;5018709;28;20234;-68
2023/08/26 05:36:07;;;;;;;1.30;1.20;;;24.20;45.30;;;;;;5026280;28;20326;-68
2023/08/26 05:38:32;;;;;;;1.60;1.40;;;24.20;45.30;;;;;;5024835;28;20348;-67
2023/08/26 05:40:58;;;;;;;1.90;1.40;;;24.20;45.30;;;;;;5028074;28;20229;-67
2023/08/26 05:43:23;;;;;;;2.33;1.67;;;24.20;45.10;;;;;;5031486;28;20555;-67
2023/08/26 05:45:49;;;;;;;1.67;1.30;;;24.20;45.10;;;;;;5028815;28;20227;-67
2023/08/26 05:48:14;;;;;;;1.30;1.20;;;24.20;45.10;;;;;;5028761;28;20954;-68
2023/08/26 05:50:40;;;;;;;1.57;1.47;;;24.20;45.10;;;;;;5031286;28;20222;-67
2023/08/26 05:53:05;;;;;;;1.87;1.23;;;24.20;45.00;;;;;;5027621;28;20288;-68
2023/08/26 05:55:31;;;;;;;3.80;1.40;;;24.20;45.00;;;;;;5028320;28;20234;-67
2023/08/26 05:57:56;;;;;;;1.30;1.20;;;24.20;44.80;;;;;;5030084;28;20222;-67
2023/08/26 06:00:22;;;;;;;1.17;1.07;;;24.20;44.80;;;;;;5031599;28;20279;-67
2023/08/26 06:02:49;;;;;;;1.50;1.20;;;24.20;44.80;;;;;;5030980;28;20852;-69
2023/08/26 06:05:15;;;;;;;1.57;1.47;;;24.20;44.80;;;;;;5028969;28;20222;-68
2023/08/26 06:07:40;;;;;;;8.07;1.33;;;24.30;44.90;;;;;;5029245;28;20808;-66
2023/08/26 06:10:06;;;;;;;2.30;1.00;;;24.30;44.80;;;;;;5031483;28;20907;-70
2023/08/26 06:12:31;;;;;;;1.27;1.17;;;24.30;44.80;;;;;;5028907;28;20234;-68
2023/08/26 06:14:57;;;;;;;2.30;1.23;;;24.20;44.70;;;;;;5031916;28;20258;-66
2023/08/26 06:17:22;;;;;;;1.00;0.90;;;24.30;44.70;;;;;;5027029;28;20306;-65
2023/08/26 06:19:48;;;;;;;1.07;0.97;;;24.20;44.60;;;;;;5029580;28;20222;-70
2023/08/26 06:22:13;;;;;;;1.83;1.43;;;24.30;44.70;;;;;;5023437;28;20214;-66
2023/08/26 06:24:39;;;;;;;1.20;1.10;;;24.30;44.70;;;;;;5022933;28;20275;-67
2023/08/26 06:27:06;;;;;;;1.00;0.90;;;24.30;44.70;;;;;;5012382;28;20225;-69
2023/08/26 06:29:31;;;;;;;1.40;1.30;;;24.30;44.70;;;;;;5005015;28;20222;-67
2023/08/26 06:31:57;;;;;;;2.70;1.47;;;24.30;45.10;;;;;;5018174;28;20534;-67
2023/08/26 06:34:22;;;;;;;0.87;0.83;;;24.30;45.50;;;;;;5014464;28;20243;-73
2023/08/26 06:36:48;;;;;;;1.63;1.10;;;24.30;45.50;;;;;;5019077;28;20285;-69
2023/08/26 06:39:13;;;;;;;1.27;1.17;;;24.30;45.30;;;;;;5016829;28;20957;-70
2023/08/26 06:41:39;;;;;;;1.37;1.00;;;24.30;45.20;;;;;;5015793;28;20250;-69
2023/08/26 06:44:04;;;;;;;4.53;1.30;;;24.40;45.20;;;;;;5021190;28;20797;-70
2023/08/26 06:46:30;;;;;;;1.63;1.13;;;24.40;45.00;;;;;;5023313;28;20561;-70
2023/08/26 06:48:56;;;;;;;1.10;1.00;;;24.40;45.00;;;;;;5021074;28;20276;-75
2023/08/26 06:51:21;;;;;;;1.20;1.10;;;24.40;45.10;;;;;;5019771;28;20244;-69
2023/08/26 06:53:47;;;;;;;1.73;1.00;;;24.40;44.90;;;;;;5016420;28;20234;-71
2023/08/26 06:56:12;;;;;;;3.13;1.20;;;24.40;44.70;;;;;;5022319;28;20225;-69
2023/08/26 06:58:38;;;;;;;2.00;1.20;;;24.40;44.60;;;;;;5017333;28;20333;-66
2023/08/26 07:01:03;;;;;;;3.63;1.10;;;24.40;44.50;;;;;;5015398;28;20853;-69
2023/08/26 07:03:30;;;;;;;1.87;1.33;;;24.40;44.40;;;;;;5019233;28;20253;-67
2023/08/26 07:05:55;;;;;;;1.67;1.17;;;24.40;44.30;;;;;;5014966;28;20642;-65
2023/08/26 07:08:21;;;;;;;2.33;1.00;;;24.40;44.10;;;;;;5021200;28;20463;-66
2023/08/26 07:10:47;;;;;;;1.10;1.00;;;24.40;44.10;;;;;;5017181;28;20241;-67
2023/08/26 07:13:13;;;;;;;0.90;0.80;;;24.40;43.90;;;;;;5021489;28;20214;-66
2023/08/26 07:15:39;;;;;;;1.30;1.20;;;24.40;44.30;;;;;;5016397;28;20490;-71
2023/08/26 07:18:05;;;;;;;1.30;1.07;;;24.40;44.70;;;;;;5018796;28;20373;-70
2023/08/26 07:20:30;;;;;;;1.40;1.20;;;24.40;44.90;;;;;;5019089;28;22244;-67
2023/08/26 07:22:56;;;;;;;1.43;1.10;;;24.40;44.80;;;;;;5021726;28;20222;-69
2023/08/26 07:25:21;;;;;;;1.93;1.10;;;24.40;44.70;;;;;;5014635;28;20313;-68
2023/08/26 07:27:47;;;;;;;2.40;1.30;;;24.40;44.50;;;;;;5018376;28;20577;-69
2023/08/26 07:30:13;;;;;;;1.23;1.13;;;24.40;44.40;;;;;;5018919;28;20249;-68
2023/08/26 07:32:39;;;;;;;1.20;1.10;;;24.40;44.30;;;;;;5018449;28;20225;-65
2023/08/26 07:35:07;;;;;;;2.30;1.00;;;24.50;44.50;;;;;;5019269;28;20464;-67
2023/08/26 07:37:32;;;;;;;1.30;1.20;;;24.40;44.30;;;;;;5018397;28;21000;-66
2023/08/26 07:40:00;;;;;;;1.17;1.07;;;24.40;44.20;;;;;;5018176;28;20463;-68
2023/08/26 07:42:26;;;;;;;1.67;1.10;;;24.40;44.50;;;;;;5016597;28;20234;-67
2023/08/26 07:44:51;;;;;;;1.30;1.20;;;24.40;44.40;;;;;;5022139;28;20851;-66
2023/08/26 07:47:18;;;;;;;1.77;1.10;;;24.40;44.40;;;;;;5021069;28;20280;-68
2023/08/26 07:49:44;;;;;;;3.07;1.20;;;24.40;44.70;;;;;;5020307;28;20225;-67
2023/08/26 07:52:09;;;;;;;1.60;1.20;;;24.40;44.60;;;;;;5016351;28;20456;-66
2023/08/26 07:54:35;;;;;;;1.00;0.90;;;24.40;44.40;;;;;;5019413;28;20248;-66
2023/08/26 07:57:00;;;;;;;1.13;1.03;;;24.40;44.20;;;;;;5018993;28;20337;-68
2023/08/26 07:59:26;;;;;;;2.03;1.20;;;24.40;44.10;;;;;;5018011;28;20227;-69
2023/08/26 08:01:51;;;;;;;1.00;0.90;;;24.40;44.00;;;;;;5015892;28;20229;-69
2023/08/26 08:04:17;;;;;;;3.27;1.30;;;24.40;43.80;;;;;;5016130;28;20714;-70
2023/08/26 08:06:42;;;;;;;1.30;1.20;;;24.40;43.60;;;;;;5014055;28;20210;-74
2023/08/26 08:09:09;;;;;;;1.20;1.10;;;24.40;43.40;;;;;;5014024;28;20234;-65
2023/08/26 08:11:34;;;;;;;1.43;1.30;;;24.40;43.40;;;;;;5021348;28;20328;-65
2023/08/26 08:14:00;;;;;;;1.20;1.10;;;24.40;43.30;;;;;;5020743;28;20847;-66
2023/08/26 08:16:25;;;;;;;1.23;1.13;;;24.40;43.30;;;;;;5016603;28;20401;-66
2023/08/26 08:18:51;;;;;;;1.10;1.00;;;24.40;43.30;;;;;;5016414;28;20215;-66
2023/08/26 08:21:16;;;;;;;1.87;1.10;;;24.40;43.30;;;;;;5017325;28;20822;-70
2023/08/26 08:23:43;;;;;;;2.10;1.40;;;24.40;43.10;;;;;;5021055;28;20297;-66
2023/08/26 08:26:11;;;;;;;1.63;1.20;;;24.40;43.10;;;;;;5016337;28;21224;-66
2023/08/26 08:28:36;;;;;;;1.00;0.90;;;24.40;43.10;;;;;;5023729;28;20471;-65
2023/08/26 08:31:02;;;;;;;1.10;1.00;;;24.40;43.30;;;;;;5047851;28;20510;-68
2023/08/26 08:33:28;;;;;;;3.07;1.40;;;24.30;43.00;;;;;;5015880;28;21083;-65
2023/08/26 08:35:53;;;;;;;1.70;1.00;;;24.40;43.10;;;;;;5019115;28;20236;-66
2023/08/26 08:38:19;;;;;;;1.00;0.90;;;24.40;43.40;;;;;;5009542;28;20966;-67
2023/08/26 08:40:44;;;;;;;1.47;1.00;;;24.40;43.70;;;;;;5012338;28;20691;-66
2023/08/26 08:43:12;;;;;;;1.00;0.90;;;24.40;44.00;;;;;;4995179;28;20237;-68
2023/08/26 08:45:38;;;;;;;2.00;1.23;;;24.40;44.30;;;;;;5014359;28;20222;-67
2023/08/26 08:48:04;;;;;;;1.20;1.00;;;24.40;44.60;;;;;;5015733;28;20455;-65
2023/08/26 08:50:31;;;;;;;1.23;1.13;;;24.40;44.80;;;;;;5017830;28;20466;-71
2023/08/26 08:52:58;;;;;;;1.13;1.03;;;24.40;44.90;;;;;;5018639;28;20517;-67
2023/08/26 08:55:25;;;;;;;1.77;0.90;;;24.40;45.00;;;;;;5014602;28;20485;-68
2023/08/26 08:57:52;;;;;;;1.20;1.10;;;24.40;44.90;;;;;;5012591;28;20482;-68
2023/08/26 09:00:19;;;;;;;1.27;1.07;;;24.40;45.00;;;;;;5017968;28;20470;-70
2023/08/26 09:02:46;;;;;;;3.53;1.20;;;24.40;45.10;;;;;;5016593;28;20461;-69
2023/08/26 09:05:12;;;;;;;1.00;0.90;;;24.40;44.70;;;;;;5015567;28;20454;-70
2023/08/26 09:07:42;;;;;;;1.03;0.93;;;24.40;44.70;;;;;;5017687;28;20476;-68
2023/08/26 09:10:11;;;;;;;3.00;1.63;;;24.40;44.40;;;;;;5015734;28;20695;-69
2023/08/26 09:12:36;;;;;;;1.20;1.10;;;24.40;44.10;;;;;;5015768;28;20490;-68
2023/08/26 09:15:03;;;;;;;0.83;0.80;;;24.40;44.00;;;;;;5019236;28;20586;-67
2023/08/26 09:17:29;;;;;;;1.57;1.17;;;24.40;44.10;;;;;;5021556;28;20227;-67
2023/08/26 09:19:58;;;;;;;3.23;1.07;;;24.40;43.80;;;;;;5022659;28;21068;-70
2023/08/26 09:22:25;;;;;;;1.20;1.10;;;24.40;43.60;;;;;;5018558;28;20470;-67
2023/08/26 09:25:01;;;;;;;2.70;1.30;;;24.40;43.20;;;;;;5021104;28;20470;-68
2023/08/26 09:27:28;;;;;;;4.53;0.90;;;24.40;43.10;;;;;;5018271;28;20455;-70
2023/08/26 09:29:54;;;;;;;2.07;1.03;;;24.40;43.20;;;;;;5019681;28;20480;-70
2023/08/26 09:32:37;;;;;;;1.90;1.00;;;24.40;43.10;;;;;;5018554;28;20456;-68
2023/08/26 09:35:16;;;;;;;1.00;0.90;;;24.40;43.10;;;;;;5021704;28;20510;-68
2023/08/26 09:37:44;;;;;;;1.17;1.07;;;24.40;43.10;;;;;;5019412;28;20467;-67
2023/08/26 09:40:17;;;;;;;12.83;1.30;;;24.40;43.10;;;;;;5021885;28;20588;-68
2023/08/26 09:42:43;;;;;;;1.53;0.90;;;24.40;43.10;;;;;;5018737;28;20472;-69
2023/08/26 09:45:10;;;;;;;1.00;0.93;;;24.40;43.10;;;;;;5019768;28;20554;-68
2023/08/26 09:47:39;;;;;;;1.03;0.93;;;24.40;43.10;;;;;;5018433;28;20524;-70
2023/08/26 09:50:06;;;;;;;0.80;0.80;;;24.40;43.10;;;;;;5020333;28;20469;-67
2023/08/26 09:52:43;;;;;;;1.93;1.03;;;24.40;43.10;;;;;;5020418;28;20470;-68
2023/08/26 09:55:10;;;;;;;0.80;0.80;;;24.40;43.10;;;;;;5019902;28;20467;-68
2023/08/26 09:57:35;;;;;;;1.60;0.83;;;24.40;43.30;;;;;;5015582;28;20483;-69
2023/08/26 10:00:01;;;;;;;1.47;0.90;;;24.40;43.10;;;;;;5017863;28;20589;-70
2023/08/26 10:02:30;;;;;;;1.00;0.90;;;24.40;43.10;;;;;;5017017;28;20233;-68
2023/08/26 10:04:58;;;;;;;1.00;0.90;;;24.40;43.10;;;;;;5020267;28;20928;-67
2023/08/26 10:07:24;;;;;;;0.70;0.70;;;24.40;43.60;;;;;;5016352;28;20558;-70
2023/08/26 10:09:55;;;;;;;1.30;1.20;;;24.50;43.80;;;;;;5019455;28;20456;-68
2023/08/26 10:12:30;;;;;;;1.47;0.90;;;24.40;44.70;;;;;;5018761;28;20464;-67
2023/08/26 10:14:59;;;;;;;0.80;0.80;;;24.40;43.80;;;;;;5021905;28;20458;-68
2023/08/26 10:17:28;;;;;;;2.10;0.90;;;24.40;43.60;;;;;;5018608;28;20812;-70
2023/08/26 10:19:55;;;;;;;1.40;0.83;;;24.40;43.50;;;;;;5019594;28;20463;-68
2023/08/26 10:22:21;;;;;;;1.10;1.00;;;24.40;43.70;;;;;;5014508;28;20455;-69
2023/08/26 10:24:48;;;;;;;1.37;1.10;;;24.40;43.50;;;;;;5016805;28;20462;-70
2023/08/26 10:27:14;;;;;;;1.30;0.90;;;24.40;43.70;;;;;;5018233;28;20361;-68
2023/08/26 10:29:40;;;;;;;0.70;0.70;;;24.50;43.50;;;;;;5019801;28;20495;-70
2023/08/26 10:32:20;;;;;;;2.43;1.07;;;24.50;43.70;;;;;;5021352;28;20443;-68
2023/08/26 10:34:56;;;;;;;2.43;1.00;;;24.50;43.30;;;;;;5021373;28;20582;-69
2023/08/26 10:37:30;;;;;;;1.00;0.80;;;24.50;43.70;;;;;;5018102;28;20466;-67
2023/08/26 10:39:56;;;;;;;1.10;1.00;;;24.50;43.70;;;;;;5021380;28;20549;-68
2023/08/26 10:42:23;;;;;;;1.43;1.03;;;24.50;43.80;;;;;;5017257;28;20536;-68
2023/08/26 10:44:55;;;;;;;1.00;0.90;;;24.50;43.70;;;;;;5017053;28;20583;-69
2023/08/26 10:47:40;;;;;;;2.80;0.80;;;24.50;43.90;;;;;;5019986;28;20455;-67
2023/08/26 10:50:25;;;;;;;0.80;0.80;;;24.50;43.80;;;;;;5019699;28;20478;-68
2023/08/26 10:53:13;;;;;;;1.10;1.00;;;24.50;43.60;;;;;;5019819;28;20827;-67
2023/08/26 10:55:39;;;;;;;1.57;1.03;;;24.50;43.60;;;;;;5021464;28;20476;-68
2023/08/26 10:58:13;;;;;;;1.10;0.90;;;24.50;43.70;;;;;;5018317;28;20518;-70
2023/08/26 11:00:43;;;;;;;1.43;1.00;;;24.50;44.00;;;;;;5022642;28;20694;-67
2023/08/26 11:03:11;;;;;;;0.93;0.83;;;24.50;44.10;;;;;;5018529;28;20535;-70
2023/08/26 11:05:42;;;;;;;1.87;0.90;;;24.50;44.20;;;;;;5018215;28;20451;-68
2023/08/26 11:08:08;;;;;;;1.00;0.90;;;24.50;44.20;;;;;;5025263;28;20479;-67
2023/08/26 11:10:36;;;;;;;0.80;0.80;;;24.50;44.00;;;;;;5030469;28;20617;-67
2023/08/26 11:13:03;;;;;;;0.93;0.93;;;24.50;43.80;;;;;;5018511;28;20229;-70
2023/08/26 11:15:36;;;;;;;1.57;0.93;;;24.50;43.90;;;;;;5052428;28;20894;-69
2023/08/26 11:18:01;;;;;;;0.90;0.90;;;24.50;43.90;;;;;;5022056;28;20450;-70
2023/08/26 11:20:31;;;;;;;1.33;0.83;;;24.50;44.10;;;;;;5027441;28;20964;-69
2023/08/26 11:22:56;;;;;;;1.40;0.90;;;24.50;44.20;;;;;;5018056;28;20217;-68
2023/08/26 11:25:22;;;;;;;0.90;0.90;;;24.50;44.00;;;;;;5019115;28;20502;-67
2023/08/26 11:27:48;;;;;;;1.20;1.10;;;24.50;43.90;;;;;;5015781;28;20253;-70
2023/08/26 11:30:14;;;;;;;1.00;0.90;;;24.50;43.70;;;;;;5021513;28;20215;-70
2023/08/26 11:32:40;;;;;;;0.90;0.80;;;24.50;43.80;;;;;;5021357;28;20234;-69
2023/08/26 11:35:09;;;;;;;1.00;0.90;;;24.60;44.00;;;;;;5018564;28;20497;-67
2023/08/26 11:37:42;;;;;;;0.90;0.90;;;24.50;44.00;;;;;;5019860;28;23422;-68
2023/08/26 11:40:09;;;;;;;1.77;0.90;;;24.60;44.00;;;;;;5017015;28;20508;-70
2023/08/26 11:42:35;;;;;;;1.00;0.90;;;24.50;43.80;;;;;;5021500;28;20443;-69
2023/08/26 11:45:00;;;;;;;1.00;0.90;;;24.50;43.70;;;;;;5022660;28;20459;-68
2023/08/26 11:47:26;;;;;;;0.70;0.70;;;24.50;43.70;;;;;;5018524;28;20218;-68
2023/08/26 11:49:55;;;;;;;0.90;0.90;;;24.60;43.60;;;;;;5019786;28;20222;-70
2023/08/26 11:52:42;;;;;;;1.10;1.00;;;24.60;43.20;;;;;;5017640;28;20249;-67
2023/08/26 11:55:09;;;;;;;0.80;0.80;;;24.60;43.20;;;;;;5022152;28;20463;-73
2023/08/26 11:57:39;;;;;;;0.90;0.90;;;24.60;43.20;;;;;;5020961;28;20466;-68
2023/08/26 12:00:09;;;;;;;0.80;0.80;;;24.60;43.50;;;;;;5018779;28;20546;-68
2023/08/26 12:02:35;;;;;;;0.70;0.70;;;24.50;43.80;;;;;;5032917;28;20866;-68
2023/08/26 12:05:01;;;;;;;0.80;0.70;;;24.60;44.10;;;;;;5022704;28;20463;-68
2023/08/26 12:07:29;;;;;;;1.00;0.90;;;24.50;44.20;;;;;;5015387;28;20218;-68
2023/08/26 12:10:08;;;;;;;0.80;0.80;;;24.50;44.30;;;;;;5014976;28;20226;-71
2023/08/26 12:12:35;;;;;;;0.80;0.80;;;24.50;44.40;;;;;;5016826;28;20462;-68
2023/08/26 12:15:09;;;;;;;0.87;0.87;;;24.50;44.60;;;;;;5012861;28;21045;-67
2023/08/26 12:17:49;;;;;;;0.80;0.80;;;24.50;44.60;;;;;;5013061;28;20452;-68
2023/08/26 12:20:27;;;;;;;1.00;0.83;;;24.50;44.70;;;;;;5014830;28;20495;-68
2023/08/26 12:22:58;;;;;;;1.27;0.83;;;24.50;44.70;;;;;;5009502;28;20463;-69
2023/08/26 12:25:26;;;;;;;1.00;0.90;;;24.50;44.70;;;;;;5015801;28;20881;-71
2023/08/26 12:27:52;;;;;;;0.80;0.80;;;24.50;44.60;;;;;;5013914;28;21161;-67
2023/08/26 12:30:19;;;;;;;1.03;0.97;;;24.50;44.50;;;;;;5018307;28;20470;-68
2023/08/26 12:32:45;;;;;;;1.13;1.00;;;24.50;44.50;;;;;;5015661;28;20463;-69
2023/08/26 12:35:11;;;;;;;1.20;0.90;;;24.50;44.40;;;;;;5016796;28;20472;-67
2023/08/26 12:37:37;;;;;;;1.10;0.87;;;24.50;44.40;;;;;;5013175;28;20512;-70
2023/08/26 12:40:04;;;;;;;2.27;0.93;;;24.50;44.40;;;;;;5015848;28;20221;-66
2023/08/26 12:42:31;;;;;;;0.80;0.80;;;24.50;44.30;;;;;;5015147;28;20642;-67
2023/08/26 12:44:57;;;;;;;1.10;1.00;;;24.50;44.40;;;;;;5013630;28;20471;-68